sensor_id;sensor_type;location;lat;lon;timestamp;P1;durP1;ratioP1;P2;durP2;ratioP2
84138;SDS011;74250;51.528;6.748;2024-01-25T00:00:42;20.95;;;3.83;;
84138;SDS011;74250;51.528;6.748;2024-01-25T00:03:08;31.42;;;4.60;;
84138;SDS011;74250;51.528;6.748;2024-01-25T00:05:35;28.02;;;3.42;;
84138;SDS011;74250;51.528;6.748;2024-01-25T00:08:00;25.08;;;3.72;;
84138;SDS011;74250;51.528;6.748;2024-01-25T00:10:27;20.70;;;3.20;;
84138;SDS011;74250;51.528;6.748;2024-01-25T00:12:52;22.77;;;3.58;;
84138;SDS011;74250;51.528;6.748;2024-01-25T00:15:18;27.70;;;4.60;;
84138;SDS011;74250;51.528;6.748;2024-01-25T00:17:44;27.50;;;3.60;;
84138;SDS011;74250;51.528;6.748;2024-01-25T00:20:09;22.05;;;5.00;;
84138;SDS011;74250;51.528;6.748;2024-01-25T00:22:35;23.35;;;4.25;;
84138;SDS011;74250;51.528;6.748;2024-01-25T00:25:01;25.05;;;3.97;;
84138;SDS011;74250;51.528;6.748;2024-01-25T00:27:27;29.05;;;4.70;;
84138;SDS011;74250;51.528;6.748;2024-01-25T00:29:53;30.00;;;4.60;;
84138;SDS011;74250;51.528;6.748;2024-01-25T00:32:19;33.13;;;5.70;;
84138;SDS011;74250;51.528;6.748;2024-01-25T00:34:44;27.38;;;4.10;;
84138;SDS011;74250;51.528;6.748;2024-01-25T00:37:11;27.67;;;3.13;;
84138;SDS011;74250;51.528;6.748;2024-01-25T00:39:36;24.38;;;4.60;;
84138;SDS011;74250;51.528;6.748;2024-01-25T00:42:05;27.90;;;4.45;;
84138;SDS011;74250;51.528;6.748;2024-01-25T00:44:31;20.85;;;4.65;;
84138;SDS011;74250;51.528;6.748;2024-01-25T00:46:57;30.10;;;5.15;;
84138;SDS011;74250;51.528;6.748;2024-01-25T00:49:24;28.73;;;3.65;;
84138;SDS011;74250;51.528;6.748;2024-01-25T00:51:50;20.30;;;3.47;;
84138;SDS011;74250;51.528;6.748;2024-01-25T00:56:49;32.67;;;5.30;;
84138;SDS011;74250;51.528;6.748;2024-01-25T00:59:17;27.38;;;3.70;;
84138;SDS011;74250;51.528;6.748;2024-01-25T01:01:44;30.48;;;5.45;;
84138;SDS011;74250;51.528;6.748;2024-01-25T01:04:11;28.08;;;3.97;;
84138;SDS011;74250;51.528;6.748;2024-01-25T01:06:38;24.73;;;3.95;;
84138;SDS011;74250;51.528;6.748;2024-01-25T01:09:05;28.00;;;3.92;;
84138;SDS011;74250;51.528;6.748;2024-01-25T01:11:32;26.77;;;4.68;;
84138;SDS011;74250;51.528;6.748;2024-01-25T01:13:58;26.25;;;3.45;;
84138;SDS011;74250;51.528;6.748;2024-01-25T01:16:23;39.58;;;4.40;;
84138;SDS011;74250;51.528;6.748;2024-01-25T01:18:48;25.75;;;4.30;;
84138;SDS011;74250;51.528;6.748;2024-01-25T01:21:15;25.05;;;3.33;;
84138;SDS011;74250;51.528;6.748;2024-01-25T01:23:43;23.85;;;3.67;;
84138;SDS011;74250;51.528;6.748;2024-01-25T01:26:09;22.58;;;3.22;;
84138;SDS011;74250;51.528;6.748;2024-01-25T01:28:36;29.95;;;4.78;;
84138;SDS011;74250;51.528;6.748;2024-01-25T01:31:02;26.10;;;3.80;;
84138;SDS011;74250;51.528;6.748;2024-01-25T01:33:29;27.92;;;4.13;;
84138;SDS011;74250;51.528;6.748;2024-01-25T01:35:54;25.52;;;4.85;;
84138;SDS011;74250;51.528;6.748;2024-01-25T01:38:21;23.85;;;3.50;;
84138;SDS011;74250;51.528;6.748;2024-01-25T01:40:47;26.08;;;3.65;;
84138;SDS011;74250;51.528;6.748;2024-01-25T01:43:19;19.77;;;4.28;;
84138;SDS011;74250;51.528;6.748;2024-01-25T01:45:44;19.90;;;3.28;;
84138;SDS011;74250;51.528;6.748;2024-01-25T01:48:10;23.45;;;3.28;;
84138;SDS011;74250;51.528;6.748;2024-01-25T01:50:36;29.02;;;3.83;;
84138;SDS011;74250;51.528;6.748;2024-01-25T01:53:01;21.63;;;2.95;;
84138;SDS011;74250;51.528;6.748;2024-01-25T01:55:26;38.42;;;5.47;;
84138;SDS011;74250;51.528;6.748;2024-01-25T01:57:52;26.10;;;3.90;;
84138;SDS011;74250;51.528;6.748;2024-01-25T02:00:22;26.23;;;4.00;;
84138;SDS011;74250;51.528;6.748;2024-01-25T02:02:49;26.45;;;3.97;;
84138;SDS011;74250;51.528;6.748;2024-01-25T02:05:14;18.92;;;2.92;;
84138;SDS011;74250;51.528;6.748;2024-01-25T02:07:41;28.05;;;5.32;;
84138;SDS011;74250;51.528;6.748;2024-01-25T02:10:07;20.88;;;3.42;;
84138;SDS011;74250;51.528;6.748;2024-01-25T02:12:33;21.77;;;3.78;;
84138;SDS011;74250;51.528;6.748;2024-01-25T02:14:59;18.77;;;2.45;;
84138;SDS011;74250;51.528;6.748;2024-01-25T02:17:24;23.65;;;4.00;;
84138;SDS011;74250;51.528;6.748;2024-01-25T02:19:50;24.70;;;4.47;;
84138;SDS011;74250;51.528;6.748;2024-01-25T02:22:16;25.75;;;4.72;;
84138;SDS011;74250;51.528;6.748;2024-01-25T02:24:46;26.20;;;3.50;;
84138;SDS011;74250;51.528;6.748;2024-01-25T02:27:11;29.80;;;5.18;;
84138;SDS011;74250;51.528;6.748;2024-01-25T02:29:46;29.05;;;3.40;;
84138;SDS011;74250;51.528;6.748;2024-01-25T02:32:11;28.98;;;3.50;;
84138;SDS011;74250;51.528;6.748;2024-01-25T02:34:36;25.70;;;4.32;;
84138;SDS011;74250;51.528;6.748;2024-01-25T02:37:02;30.27;;;3.15;;
84138;SDS011;74250;51.528;6.748;2024-01-25T02:41:55;21.30;;;3.13;;
84138;SDS011;74250;51.528;6.748;2024-01-25T02:44:20;30.98;;;3.72;;
84138;SDS011;74250;51.528;6.748;2024-01-25T02:46:46;26.48;;;4.53;;
84138;SDS011;74250;51.528;6.748;2024-01-25T02:49:12;22.25;;;3.25;;
84138;SDS011;74250;51.528;6.748;2024-01-25T02:51:38;26.27;;;3.63;;
84138;SDS011;74250;51.528;6.748;2024-01-25T02:54:03;25.50;;;2.80;;
84138;SDS011;74250;51.528;6.748;2024-01-25T02:56:29;24.98;;;3.67;;
84138;SDS011;74250;51.528;6.748;2024-01-25T02:58:59;24.45;;;3.90;;
84138;SDS011;74250;51.528;6.748;2024-01-25T03:01:25;21.05;;;3.58;;
84138;SDS011;74250;51.528;6.748;2024-01-25T03:03:51;24.52;;;3.75;;
84138;SDS011;74250;51.528;6.748;2024-01-25T03:06:17;23.67;;;3.40;;
84138;SDS011;74250;51.528;6.748;2024-01-25T03:08:42;23.90;;;3.33;;
84138;SDS011;74250;51.528;6.748;2024-01-25T03:11:07;26.00;;;3.58;;
84138;SDS011;74250;51.528;6.748;2024-01-25T03:13:34;22.58;;;2.63;;
84138;SDS011;74250;51.528;6.748;2024-01-25T03:16:00;30.08;;;5.13;;
84138;SDS011;74250;51.528;6.748;2024-01-25T03:18:27;25.80;;;3.75;;
84138;SDS011;74250;51.528;6.748;2024-01-25T03:20:52;20.85;;;3.17;;
84138;SDS011;74250;51.528;6.748;2024-01-25T03:23:18;25.55;;;3.45;;
84138;SDS011;74250;51.528;6.748;2024-01-25T03:25:43;23.13;;;4.22;;
84138;SDS011;74250;51.528;6.748;2024-01-25T03:28:09;22.83;;;3.08;;
84138;SDS011;74250;51.528;6.748;2024-01-25T03:30:36;27.42;;;5.05;;
84138;SDS011;74250;51.528;6.748;2024-01-25T03:33:02;19.90;;;3.78;;
84138;SDS011;74250;51.528;6.748;2024-01-25T03:35:27;24.83;;;2.90;;
84138;SDS011;74250;51.528;6.748;2024-01-25T03:37:52;25.15;;;3.65;;
84138;SDS011;74250;51.528;6.748;2024-01-25T03:40:18;27.17;;;3.45;;
84138;SDS011;74250;51.528;6.748;2024-01-25T03:42:44;23.30;;;3.95;;
84138;SDS011;74250;51.528;6.748;2024-01-25T03:45:09;29.52;;;4.90;;
84138;SDS011;74250;51.528;6.748;2024-01-25T03:47:37;29.17;;;4.20;;
84138;SDS011;74250;51.528;6.748;2024-01-25T03:50:03;25.27;;;3.90;;
84138;SDS011;74250;51.528;6.748;2024-01-25T03:52:29;20.70;;;3.30;;
84138;SDS011;74250;51.528;6.748;2024-01-25T03:54:55;32.22;;;3.38;;
84138;SDS011;74250;51.528;6.748;2024-01-25T03:57:21;26.15;;;3.15;;
84138;SDS011;74250;51.528;6.748;2024-01-25T03:59:46;30.13;;;4.75;;
84138;SDS011;74250;51.528;6.748;2024-01-25T04:02:12;14.93;;;2.40;;
84138;SDS011;74250;51.528;6.748;2024-01-25T04:04:38;24.20;;;3.38;;
84138;SDS011;74250;51.528;6.748;2024-01-25T04:07:03;27.85;;;4.20;;
84138;SDS011;74250;51.528;6.748;2024-01-25T04:09:28;17.20;;;2.40;;
84138;SDS011;74250;51.528;6.748;2024-01-25T04:11:54;23.48;;;4.63;;
84138;SDS011;74250;51.528;6.748;2024-01-25T04:14:20;18.00;;;3.42;;
84138;SDS011;74250;51.528;6.748;2024-01-25T04:16:45;26.83;;;4.03;;
84138;SDS011;74250;51.528;6.748;2024-01-25T04:19:16;33.50;;;4.53;;
84138;SDS011;74250;51.528;6.748;2024-01-25T04:21:41;29.27;;;3.17;;
84138;SDS011;74250;51.528;6.748;2024-01-25T04:24:07;19.42;;;2.38;;
84138;SDS011;74250;51.528;6.748;2024-01-25T04:26:32;22.08;;;2.80;;
84138;SDS011;74250;51.528;6.748;2024-01-25T04:28:57;22.98;;;4.65;;
84138;SDS011;74250;51.528;6.748;2024-01-25T04:31:23;29.30;;;3.42;;
84138;SDS011;74250;51.528;6.748;2024-01-25T04:33:48;27.40;;;4.65;;
84138;SDS011;74250;51.528;6.748;2024-01-25T04:36:14;30.70;;;5.78;;
84138;SDS011;74250;51.528;6.748;2024-01-25T04:38:40;21.13;;;3.70;;
84138;SDS011;74250;51.528;6.748;2024-01-25T04:41:05;24.10;;;3.85;;
84138;SDS011;74250;51.528;6.748;2024-01-25T04:43:34;21.75;;;2.60;;
84138;SDS011;74250;51.528;6.748;2024-01-25T04:46:01;26.35;;;3.00;;
84138;SDS011;74250;51.528;6.748;2024-01-25T04:48:27;16.88;;;4.45;;
84138;SDS011;74250;51.528;6.748;2024-01-25T04:50:53;28.85;;;4.72;;
84138;SDS011;74250;51.528;6.748;2024-01-25T04:53:18;31.42;;;5.25;;
84138;SDS011;74250;51.528;6.748;2024-01-25T04:55:44;24.73;;;4.63;;
84138;SDS011;74250;51.528;6.748;2024-01-25T04:58:09;22.25;;;3.35;;
84138;SDS011;74250;51.528;6.748;2024-01-25T05:00:34;24.80;;;4.90;;
84138;SDS011;74250;51.528;6.748;2024-01-25T05:03:01;26.42;;;4.65;;
84138;SDS011;74250;51.528;6.748;2024-01-25T05:05:28;25.02;;;4.00;;
84138;SDS011;74250;51.528;6.748;2024-01-25T05:07:55;25.85;;;3.60;;
84138;SDS011;74250;51.528;6.748;2024-01-25T05:10:20;22.70;;;3.72;;
84138;SDS011;74250;51.528;6.748;2024-01-25T05:12:45;27.52;;;3.95;;
84138;SDS011;74250;51.528;6.748;2024-01-25T05:15:11;23.30;;;3.63;;
84138;SDS011;74250;51.528;6.748;2024-01-25T05:17:41;22.33;;;2.95;;
84138;SDS011;74250;51.528;6.748;2024-01-25T05:20:06;31.67;;;5.30;;
84138;SDS011;74250;51.528;6.748;2024-01-25T05:22:32;28.40;;;5.00;;
84138;SDS011;74250;51.528;6.748;2024-01-25T05:24:57;28.65;;;3.17;;
84138;SDS011;74250;51.528;6.748;2024-01-25T05:27:23;26.25;;;3.80;;
84138;SDS011;74250;51.528;6.748;2024-01-25T05:29:48;28.95;;;5.75;;
84138;SDS011;74250;51.528;6.748;2024-01-25T05:32:13;25.05;;;4.57;;
84138;SDS011;74250;51.528;6.748;2024-01-25T05:34:39;24.92;;;4.13;;
84138;SDS011;74250;51.528;6.748;2024-01-25T05:37:05;25.90;;;4.93;;
84138;SDS011;74250;51.528;6.748;2024-01-25T05:39:31;30.83;;;5.07;;
84138;SDS011;74250;51.528;6.748;2024-01-25T05:41:57;23.10;;;4.15;;
84138;SDS011;74250;51.528;6.748;2024-01-25T05:44:22;29.15;;;3.83;;
84138;SDS011;74250;51.528;6.748;2024-01-25T05:46:48;22.23;;;4.18;;
84138;SDS011;74250;51.528;6.748;2024-01-25T05:49:13;23.67;;;4.65;;
84138;SDS011;74250;51.528;6.748;2024-01-25T05:51:38;26.55;;;4.78;;
84138;SDS011;74250;51.528;6.748;2024-01-25T05:54:07;30.15;;;3.63;;
84138;SDS011;74250;51.528;6.748;2024-01-25T06:01:24;23.57;;;3.90;;
84138;SDS011;74250;51.528;6.748;2024-01-25T06:03:49;22.48;;;3.80;;
84138;SDS011;74250;51.528;6.748;2024-01-25T06:06:15;33.85;;;4.90;;
84138;SDS011;74250;51.528;6.748;2024-01-25T06:08:40;25.60;;;3.17;;
84138;SDS011;74250;51.528;6.748;2024-01-25T06:11:07;32.33;;;5.95;;
84138;SDS011;74250;51.528;6.748;2024-01-25T06:13:34;23.85;;;3.90;;
84138;SDS011;74250;51.528;6.748;2024-01-25T06:16:01;27.88;;;4.43;;
84138;SDS011;74250;51.528;6.748;2024-01-25T06:18:26;18.02;;;3.17;;
84138;SDS011;74250;51.528;6.748;2024-01-25T06:20:52;23.15;;;3.50;;
84138;SDS011;74250;51.528;6.748;2024-01-25T06:23:17;23.10;;;3.83;;
84138;SDS011;74250;51.528;6.748;2024-01-25T06:25:43;31.75;;;5.22;;
84138;SDS011;74250;51.528;6.748;2024-01-25T06:28:08;31.20;;;5.55;;
84138;SDS011;74250;51.528;6.748;2024-01-25T06:30:34;32.33;;;5.30;;
84138;SDS011;74250;51.528;6.748;2024-01-25T06:33:01;32.13;;;5.72;;
84138;SDS011;74250;51.528;6.748;2024-01-25T06:35:27;32.65;;;4.22;;
84138;SDS011;74250;51.528;6.748;2024-01-25T06:37:52;28.75;;;3.80;;
84138;SDS011;74250;51.528;6.748;2024-01-25T06:40:17;31.10;;;4.07;;
84138;SDS011;74250;51.528;6.748;2024-01-25T06:42:44;27.08;;;7.18;;
84138;SDS011;74250;51.528;6.748;2024-01-25T06:45:10;24.42;;;4.60;;
84138;SDS011;74250;51.528;6.748;2024-01-25T06:47:35;32.58;;;4.47;;
84138;SDS011;74250;51.528;6.748;2024-01-25T06:50:03;26.67;;;4.93;;
84138;SDS011;74250;51.528;6.748;2024-01-25T06:52:29;21.73;;;5.00;;
84138;SDS011;74250;51.528;6.748;2024-01-25T06:54:54;32.30;;;6.22;;
84138;SDS011;74250;51.528;6.748;2024-01-25T06:57:21;35.55;;;6.50;;
84138;SDS011;74250;51.528;6.748;2024-01-25T06:59:47;38.22;;;4.78;;
84138;SDS011;74250;51.528;6.748;2024-01-25T07:02:14;28.70;;;4.88;;
84138;SDS011;74250;51.528;6.748;2024-01-25T07:04:39;26.77;;;5.03;;
84138;SDS011;74250;51.528;6.748;2024-01-25T07:07:08;27.15;;;5.05;;
84138;SDS011;74250;51.528;6.748;2024-01-25T07:09:34;34.83;;;5.63;;
84138;SDS011;74250;51.528;6.748;2024-01-25T07:11:59;33.30;;;5.50;;
84138;SDS011;74250;51.528;6.748;2024-01-25T07:14:24;31.10;;;4.93;;
84138;SDS011;74250;51.528;6.748;2024-01-25T07:16:50;28.90;;;4.32;;
84138;SDS011;74250;51.528;6.748;2024-01-25T07:19:15;28.98;;;4.90;;
84138;SDS011;74250;51.528;6.748;2024-01-25T07:21:41;30.58;;;4.25;;
84138;SDS011;74250;51.528;6.748;2024-01-25T07:24:10;32.85;;;5.15;;
84138;SDS011;74250;51.528;6.748;2024-01-25T07:26:36;31.80;;;5.20;;
84138;SDS011;74250;51.528;6.748;2024-01-25T07:29:01;26.42;;;4.43;;
84138;SDS011;74250;51.528;6.748;2024-01-25T07:31:29;18.90;;;3.83;;
84138;SDS011;74250;51.528;6.748;2024-01-25T07:33:55;32.38;;;4.25;;
84138;SDS011;74250;51.528;6.748;2024-01-25T07:36:24;24.02;;;5.35;;
84138;SDS011;74250;51.528;6.748;2024-01-25T07:38:50;29.73;;;5.05;;
84138;SDS011;74250;51.528;6.748;2024-01-25T07:41:16;23.83;;;7.45;;
84138;SDS011;74250;51.528;6.748;2024-01-25T07:43:42;27.38;;;7.25;;
84138;SDS011;74250;51.528;6.748;2024-01-25T07:46:09;27.88;;;6.97;;
84138;SDS011;74250;51.528;6.748;2024-01-25T07:48:35;21.45;;;5.45;;
84138;SDS011;74250;51.528;6.748;2024-01-25T07:51:01;38.53;;;6.70;;
84138;SDS011;74250;51.528;6.748;2024-01-25T07:56:28;25.95;;;5.38;;
84138;SDS011;74250;51.528;6.748;2024-01-25T07:58:54;24.92;;;4.63;;
84138;SDS011;74250;51.528;6.748;2024-01-25T08:01:20;27.05;;;7.07;;
84138;SDS011;74250;51.528;6.748;2024-01-25T08:04:07;22.63;;;6.07;;
84138;SDS011;74250;51.528;6.748;2024-01-25T08:06:33;21.85;;;6.00;;
84138;SDS011;74250;51.528;6.748;2024-01-25T08:08:58;24.52;;;5.65;;
84138;SDS011;74250;51.528;6.748;2024-01-25T08:11:24;38.28;;;7.22;;
84138;SDS011;74250;51.528;6.748;2024-01-25T08:13:50;27.52;;;5.78;;
84138;SDS011;74250;51.528;6.748;2024-01-25T08:16:15;30.00;;;5.95;;
84138;SDS011;74250;51.528;6.748;2024-01-25T08:18:49;22.23;;;5.55;;
84138;SDS011;74250;51.528;6.748;2024-01-25T08:21:15;32.90;;;7.65;;
84138;SDS011;74250;51.528;6.748;2024-01-25T08:23:40;33.40;;;8.18;;
84138;SDS011;74250;51.528;6.748;2024-01-25T08:26:06;33.08;;;7.05;;
84138;SDS011;74250;51.528;6.748;2024-01-25T08:28:41;31.05;;;7.57;;
84138;SDS011;74250;51.528;6.748;2024-01-25T08:31:09;27.85;;;7.78;;
84138;SDS011;74250;51.528;6.748;2024-01-25T08:33:35;31.60;;;7.47;;
84138;SDS011;74250;51.528;6.748;2024-01-25T08:36:03;26.90;;;7.18;;
84138;SDS011;74250;51.528;6.748;2024-01-25T08:38:28;27.92;;;7.55;;
84138;SDS011;74250;51.528;6.748;2024-01-25T08:40:54;29.33;;;7.72;;
84138;SDS011;74250;51.528;6.748;2024-01-25T08:43:21;34.95;;;8.00;;
84138;SDS011;74250;51.528;6.748;2024-01-25T08:45:47;28.98;;;7.18;;
84138;SDS011;74250;51.528;6.748;2024-01-25T08:48:12;34.15;;;7.38;;
84138;SDS011;74250;51.528;6.748;2024-01-25T08:50:39;35.97;;;7.72;;
84138;SDS011;74250;51.528;6.748;2024-01-25T08:53:04;29.00;;;7.38;;
84138;SDS011;74250;51.528;6.748;2024-01-25T08:58:03;24.35;;;8.30;;
84138;SDS011;74250;51.528;6.748;2024-01-25T09:00:29;29.35;;;7.82;;
84138;SDS011;74250;51.528;6.748;2024-01-25T09:02:54;23.20;;;6.30;;
84138;SDS011;74250;51.528;6.748;2024-01-25T09:05:20;23.45;;;7.20;;
84138;SDS011;74250;51.528;6.748;2024-01-25T09:07:45;35.85;;;8.80;;
84138;SDS011;74250;51.528;6.748;2024-01-25T09:10:10;25.42;;;7.20;;
84138;SDS011;74250;51.528;6.748;2024-01-25T09:12:37;32.33;;;8.07;;
84138;SDS011;74250;51.528;6.748;2024-01-25T09:15:02;34.25;;;8.27;;
84138;SDS011;74250;51.528;6.748;2024-01-25T09:17:28;29.23;;;8.15;;
84138;SDS011;74250;51.528;6.748;2024-01-25T09:19:55;40.88;;;10.57;;
84138;SDS011;74250;51.528;6.748;2024-01-25T09:22:24;42.35;;;8.95;;
84138;SDS011;74250;51.528;6.748;2024-01-25T09:24:49;28.67;;;8.10;;
84138;SDS011;74250;51.528;6.748;2024-01-25T09:27:16;24.92;;;7.82;;
84138;SDS011;74250;51.528;6.748;2024-01-25T09:29:42;28.33;;;8.50;;
84138;SDS011;74250;51.528;6.748;2024-01-25T09:32:09;31.70;;;9.27;;
84138;SDS011;74250;51.528;6.748;2024-01-25T09:34:35;43.28;;;10.00;;
84138;SDS011;74250;51.528;6.748;2024-01-25T09:37:02;29.08;;;8.75;;
84138;SDS011;74250;51.528;6.748;2024-01-25T09:39:28;29.17;;;8.13;;
84138;SDS011;74250;51.528;6.748;2024-01-25T09:41:54;51.72;;;10.65;;
84138;SDS011;74250;51.528;6.748;2024-01-25T09:44:20;39.08;;;11.25;;
84138;SDS011;74250;51.528;6.748;2024-01-25T09:46:46;34.70;;;8.73;;
84138;SDS011;74250;51.528;6.748;2024-01-25T09:49:12;33.88;;;8.35;;
84138;SDS011;74250;51.528;6.748;2024-01-25T09:51:38;30.75;;;9.57;;
84138;SDS011;74250;51.528;6.748;2024-01-25T09:54:05;28.38;;;10.27;;
84138;SDS011;74250;51.528;6.748;2024-01-25T09:56:32;29.58;;;8.40;;
84138;SDS011;74250;51.528;6.748;2024-01-25T09:58:58;31.65;;;8.88;;
84138;SDS011;74250;51.528;6.748;2024-01-25T10:06:15;35.80;;;11.00;;
84138;SDS011;74250;51.528;6.748;2024-01-25T10:08:41;32.38;;;11.30;;
84138;SDS011;74250;51.528;6.748;2024-01-25T10:11:07;29.63;;;8.73;;
84138;SDS011;74250;51.528;6.748;2024-01-25T10:13:46;27.90;;;9.35;;
84138;SDS011;74250;51.528;6.748;2024-01-25T10:16:16;38.85;;;9.52;;
84138;SDS011;74250;51.528;6.748;2024-01-25T10:18:42;36.63;;;9.20;;
84138;SDS011;74250;51.528;6.748;2024-01-25T10:21:10;31.73;;;10.57;;
84138;SDS011;74250;51.528;6.748;2024-01-25T10:23:40;36.25;;;7.90;;
84138;SDS011;74250;51.528;6.748;2024-01-25T10:26:09;34.08;;;8.20;;
84138;SDS011;74250;51.528;6.748;2024-01-25T10:28:35;40.40;;;8.95;;
84138;SDS011;74250;51.528;6.748;2024-01-25T10:31:01;40.58;;;11.23;;
84138;SDS011;74250;51.528;6.748;2024-01-25T10:33:29;36.55;;;10.25;;
84138;SDS011;74250;51.528;6.748;2024-01-25T10:35:55;27.65;;;8.05;;
84138;SDS011;74250;51.528;6.748;2024-01-25T10:38:24;33.30;;;10.45;;
84138;SDS011;74250;51.528;6.748;2024-01-25T10:40:50;34.60;;;11.13;;
84138;SDS011;74250;51.528;6.748;2024-01-25T10:43:19;46.17;;;12.20;;
84138;SDS011;74250;51.528;6.748;2024-01-25T10:45:44;32.22;;;11.40;;
84138;SDS011;74250;51.528;6.748;2024-01-25T10:48:10;39.50;;;10.90;;
84138;SDS011;74250;51.528;6.748;2024-01-25T10:50:36;34.55;;;11.30;;
84138;SDS011;74250;51.528;6.748;2024-01-25T10:53:01;40.35;;;13.63;;
84138;SDS011;74250;51.528;6.748;2024-01-25T10:55:27;42.30;;;13.00;;
84138;SDS011;74250;51.528;6.748;2024-01-25T10:57:52;37.88;;;12.20;;
84138;SDS011;74250;51.528;6.748;2024-01-25T11:00:18;44.50;;;14.50;;
84138;SDS011;74250;51.528;6.748;2024-01-25T11:02:44;36.25;;;12.68;;
84138;SDS011;74250;51.528;6.748;2024-01-25T11:05:17;36.72;;;11.43;;
84138;SDS011;74250;51.528;6.748;2024-01-25T11:13:17;26.98;;;9.55;;
84138;SDS011;74250;51.528;6.748;2024-01-25T11:15:38;36.63;;;13.30;;
84138;SDS011;74250;51.528;6.748;2024-01-25T11:18:07;34.83;;;11.30;;
84138;SDS011;74250;51.528;6.748;2024-01-25T11:20:34;33.08;;;11.07;;
84138;SDS011;74250;51.528;6.748;2024-01-25T11:23:03;41.72;;;12.05;;
84138;SDS011;74250;51.528;6.748;2024-01-25T11:25:30;31.83;;;12.40;;
84138;SDS011;74250;51.528;6.748;2024-01-25T11:27:57;37.97;;;11.88;;
84138;SDS011;74250;51.528;6.748;2024-01-25T11:30:23;38.75;;;13.98;;
84138;SDS011;74250;51.528;6.748;2024-01-25T11:32:50;35.30;;;12.05;;
84138;SDS011;74250;51.528;6.748;2024-01-25T11:35:16;32.15;;;11.07;;
84138;SDS011;74250;51.528;6.748;2024-01-25T11:37:45;34.40;;;11.20;;
84138;SDS011;74250;51.528;6.748;2024-01-25T11:40:16;30.90;;;10.25;;
84138;SDS011;74250;51.528;6.748;2024-01-25T11:42:42;35.33;;;11.82;;
84138;SDS011;74250;51.528;6.748;2024-01-25T11:45:10;36.22;;;11.27;;
84138;SDS011;74250;51.528;6.748;2024-01-25T11:47:37;28.42;;;11.30;;
84138;SDS011;74250;51.528;6.748;2024-01-25T11:50:04;35.70;;;11.98;;
84138;SDS011;74250;51.528;6.748;2024-01-25T11:52:31;31.05;;;10.60;;
84138;SDS011;74250;51.528;6.748;2024-01-25T11:55:01;33.60;;;11.38;;
84138;SDS011;74250;51.528;6.748;2024-01-25T11:57:27;26.98;;;10.63;;
84138;SDS011;74250;51.528;6.748;2024-01-25T11:59:53;39.95;;;11.50;;
84138;SDS011;74250;51.528;6.748;2024-01-25T12:02:19;29.50;;;11.52;;
84138;SDS011;74250;51.528;6.748;2024-01-25T12:04:46;36.38;;;12.55;;
84138;SDS011;74250;51.528;6.748;2024-01-25T12:07:12;36.15;;;13.25;;
84138;SDS011;74250;51.528;6.748;2024-01-25T12:09:37;43.67;;;14.45;;
84138;SDS011;74250;51.528;6.748;2024-01-25T12:12:03;38.97;;;14.15;;
84138;SDS011;74250;51.528;6.748;2024-01-25T12:14:30;43.83;;;14.10;;
84138;SDS011;74250;51.528;6.748;2024-01-25T12:16:56;49.00;;;17.70;;
84138;SDS011;74250;51.528;6.748;2024-01-25T12:19:21;49.38;;;19.27;;
84138;SDS011;74250;51.528;6.748;2024-01-25T12:21:47;43.10;;;14.80;;
84138;SDS011;74250;51.528;6.748;2024-01-25T12:24:13;41.55;;;14.73;;
84138;SDS011;74250;51.528;6.748;2024-01-25T12:26:38;36.53;;;14.30;;
84138;SDS011;74250;51.528;6.748;2024-01-25T12:29:04;43.60;;;14.05;;
84138;SDS011;74250;51.528;6.748;2024-01-25T12:31:30;35.35;;;12.82;;
84138;SDS011;74250;51.528;6.748;2024-01-25T12:33:55;33.92;;;11.80;;
84138;SDS011;74250;51.528;6.748;2024-01-25T12:36:23;40.00;;;12.90;;
84138;SDS011;74250;51.528;6.748;2024-01-25T12:38:48;46.72;;;16.38;;
84138;SDS011;74250;51.528;6.748;2024-01-25T12:41:14;43.17;;;14.23;;
84138;SDS011;74250;51.528;6.748;2024-01-25T12:43:39;38.88;;;12.20;;
84138;SDS011;74250;51.528;6.748;2024-01-25T12:46:05;45.10;;;13.60;;
84138;SDS011;74250;51.528;6.748;2024-01-25T12:48:30;33.15;;;12.32;;
84138;SDS011;74250;51.528;6.748;2024-01-25T12:50:56;37.50;;;13.70;;
84138;SDS011;74250;51.528;6.748;2024-01-25T12:55:56;37.63;;;11.70;;
84138;SDS011;74250;51.528;6.748;2024-01-25T12:58:23;37.45;;;12.70;;
84138;SDS011;74250;51.528;6.748;2024-01-25T13:00:48;36.97;;;12.07;;
84138;SDS011;74250;51.528;6.748;2024-01-25T13:03:14;36.53;;;12.95;;
84138;SDS011;74250;51.528;6.748;2024-01-25T13:05:39;44.25;;;14.18;;
84138;SDS011;74250;51.528;6.748;2024-01-25T13:08:05;40.58;;;13.43;;
84138;SDS011;74250;51.528;6.748;2024-01-25T13:10:31;44.58;;;14.10;;
84138;SDS011;74250;51.528;6.748;2024-01-25T13:12:57;29.67;;;10.85;;
84138;SDS011;74250;51.528;6.748;2024-01-25T13:15:22;37.80;;;11.15;;
84138;SDS011;74250;51.528;6.748;2024-01-25T13:17:48;35.72;;;10.52;;
84138;SDS011;74250;51.528;6.748;2024-01-25T13:20:14;43.42;;;13.20;;
84138;SDS011;74250;51.528;6.748;2024-01-25T13:22:39;37.97;;;13.02;;
84138;SDS011;74250;51.528;6.748;2024-01-25T13:25:04;45.65;;;16.20;;
84138;SDS011;74250;51.528;6.748;2024-01-25T13:27:30;44.90;;;12.57;;
84138;SDS011;74250;51.528;6.748;2024-01-25T13:29:56;39.45;;;12.93;;
84138;SDS011;74250;51.528;6.748;2024-01-25T13:32:22;39.50;;;14.75;;
84138;SDS011;74250;51.528;6.748;2024-01-25T13:34:47;36.65;;;11.77;;
84138;SDS011;74250;51.528;6.748;2024-01-25T13:37:13;44.25;;;14.10;;
84138;SDS011;74250;51.528;6.748;2024-01-25T13:39:39;34.10;;;12.15;;
84138;SDS011;74250;51.528;6.748;2024-01-25T13:42:05;32.80;;;13.00;;
84138;SDS011;74250;51.528;6.748;2024-01-25T13:44:31;30.58;;;13.00;;
84138;SDS011;74250;51.528;6.748;2024-01-25T13:47:03;37.58;;;12.48;;
84138;SDS011;74250;51.528;6.748;2024-01-25T13:49:29;37.20;;;12.38;;
84138;SDS011;74250;51.528;6.748;2024-01-25T13:51:54;41.20;;;14.52;;
84138;SDS011;74250;51.528;6.748;2024-01-25T13:54:20;34.40;;;13.25;;
84138;SDS011;74250;51.528;6.748;2024-01-25T13:56:45;42.45;;;12.63;;
84138;SDS011;74250;51.528;6.748;2024-01-25T13:59:10;38.35;;;11.35;;
84138;SDS011;74250;51.528;6.748;2024-01-25T14:01:36;38.35;;;12.00;;
84138;SDS011;74250;51.528;6.748;2024-01-25T14:04:02;49.28;;;13.55;;
84138;SDS011;74250;51.528;6.748;2024-01-25T14:06:28;40.90;;;12.77;;
84138;SDS011;74250;51.528;6.748;2024-01-25T14:08:53;34.97;;;13.43;;
84138;SDS011;74250;51.528;6.748;2024-01-25T14:11:18;36.50;;;11.40;;
84138;SDS011;74250;51.528;6.748;2024-01-25T14:13:44;43.97;;;14.73;;
84138;SDS011;74250;51.528;6.748;2024-01-25T14:16:09;36.72;;;12.88;;
84138;SDS011;74250;51.528;6.748;2024-01-25T14:18:41;42.35;;;12.88;;
84138;SDS011;74250;51.528;6.748;2024-01-25T14:21:06;33.65;;;13.57;;
84138;SDS011;74250;51.528;6.748;2024-01-25T14:23:32;42.72;;;14.30;;
84138;SDS011;74250;51.528;6.748;2024-01-25T14:25:57;45.28;;;14.13;;
84138;SDS011;74250;51.528;6.748;2024-01-25T14:28:23;39.53;;;14.60;;
84138;SDS011;74250;51.528;6.748;2024-01-25T14:30:48;37.75;;;13.18;;
84138;SDS011;74250;51.528;6.748;2024-01-25T14:33:14;36.83;;;12.52;;
84138;SDS011;74250;51.528;6.748;2024-01-25T14:35:39;36.17;;;12.82;;
84138;SDS011;74250;51.528;6.748;2024-01-25T14:38:04;36.13;;;12.85;;
84138;SDS011;74250;51.528;6.748;2024-01-25T14:40:30;39.67;;;14.00;;
84138;SDS011;74250;51.528;6.748;2024-01-25T14:42:55;49.28;;;13.90;;
84138;SDS011;74250;51.528;6.748;2024-01-25T14:45:21;40.45;;;13.63;;
84138;SDS011;74250;51.528;6.748;2024-01-25T14:47:46;42.47;;;12.85;;
84138;SDS011;74250;51.528;6.748;2024-01-25T14:50:12;45.00;;;13.27;;
84138;SDS011;74250;51.528;6.748;2024-01-25T14:52:37;46.80;;;15.80;;